sensor_id;sensor_type;location;lat;lon;timestamp;pressure;altitude;pressure_sealevel;temperature;humidity
19128;BME280;9696;53.686;10.094;2022-08-25T00:00:19;101909.41;;;18.23;87.12
19128;BME280;9696;53.686;10.094;2022-08-25T00:02:49;101912.72;;;18.25;87.28
19128;BME280;9696;53.686;10.094;2022-08-25T00:05:28;101911.94;;;18.25;87.15
19128;BME280;9696;53.686;10.094;2022-08-25T00:08:01;101909.41;;;18.23;87.74
19128;BME280;9696;53.686;10.094;2022-08-25T00:10:34;101904.09;;;18.23;87.78
19128;BME280;9696;53.686;10.094;2022-08-25T00:13:04;101907.53;;;18.16;87.50
19128;BME280;9696;53.686;10.094;2022-08-25T00:15:35;101907.00;;;18.12;87.94
19128;BME280;9696;53.686;10.094;2022-08-25T00:18:05;101897.97;;;18.05;88.60
19128;BME280;9696;53.686;10.094;2022-08-25T00:20:48;101902.81;;;18.10;88.11
19128;BME280;9696;53.686;10.094;2022-08-25T00:23:17;101900.84;;;18.12;87.76
19128;BME280;9696;53.686;10.094;2022-08-25T00:25:47;101900.47;;;18.07;87.82
19128;BME280;9696;53.686;10.094;2022-08-25T00:28:17;101900.31;;;18.08;88.07
19128;BME280;9696;53.686;10.094;2022-08-25T00:30:47;101906.25;;;17.84;89.84
19128;BME280;9696;53.686;10.094;2022-08-25T00:33:17;101904.13;;;17.88;89.59
19128;BME280;9696;53.686;10.094;2022-08-25T00:35:47;101895.19;;;17.89;89.07
19128;BME280;9696;53.686;10.094;2022-08-25T00:38:17;101898.41;;;17.83;90.01
19128;BME280;9696;53.686;10.094;2022-08-25T00:40:46;101899.66;;;17.88;89.91
19128;BME280;9696;53.686;10.094;2022-08-25T00:43:35;101896.16;;;17.88;89.30
19128;BME280;9696;53.686;10.094;2022-08-25T00:46:13;101899.34;;;17.92;89.16
19128;BME280;9696;53.686;10.094;2022-08-25T00:48:48;101895.53;;;17.94;89.17
19128;BME280;9696;53.686;10.094;2022-08-25T00:51:24;101899.66;;;17.88;89.67
19128;BME280;9696;53.686;10.094;2022-08-25T00:53:55;101892.00;;;17.85;89.79
19128;BME280;9696;53.686;10.094;2022-08-25T00:56:25;101895.63;;;17.84;89.66
19128;BME280;9696;53.686;10.094;2022-08-25T00:58:55;101890.63;;;17.81;90.00
19128;BME280;9696;53.686;10.094;2022-08-25T01:01:25;101895.53;;;17.76;90.15
19128;BME280;9696;53.686;10.094;2022-08-25T01:03:54;101901.28;;;17.72;90.56
19128;BME280;9696;53.686;10.094;2022-08-25T01:06:26;101901.69;;;17.77;90.47
19128;BME280;9696;53.686;10.094;2022-08-25T01:08:56;101903.41;;;17.68;90.72
19128;BME280;9696;53.686;10.094;2022-08-25T01:11:25;101896.22;;;17.61;91.12
19128;BME280;9696;53.686;10.094;2022-08-25T01:13:56;101897.19;;;17.60;91.68
19128;BME280;9696;53.686;10.094;2022-08-25T01:16:29;101887.81;;;17.56;91.73
19128;BME280;9696;53.686;10.094;2022-08-25T01:18:59;101900.41;;;17.54;91.44
19128;BME280;9696;53.686;10.094;2022-08-25T01:21:35;101893.97;;;17.56;91.63
19128;BME280;9696;53.686;10.094;2022-08-25T01:24:06;101896.75;;;17.55;92.03
19128;BME280;9696;53.686;10.094;2022-08-25T01:26:38;101896.41;;;17.50;91.87
19128;BME280;9696;53.686;10.094;2022-08-25T01:29:08;101899.84;;;17.50;92.59
19128;BME280;9696;53.686;10.094;2022-08-25T01:31:54;101899.19;;;17.48;91.88
19128;BME280;9696;53.686;10.094;2022-08-25T01:34:25;101898.78;;;17.43;92.67
19128;BME280;9696;53.686;10.094;2022-08-25T01:36:57;101896.31;;;17.41;93.22
19128;BME280;9696;53.686;10.094;2022-08-25T01:39:28;101905.53;;;17.37;93.35
19128;BME280;9696;53.686;10.094;2022-08-25T01:42:22;101909.25;;;17.44;92.73
19128;BME280;9696;53.686;10.094;2022-08-25T01:44:52;101899.09;;;17.40;93.42
19128;BME280;9696;53.686;10.094;2022-08-25T01:47:21;101908.63;;;17.33;93.14
19128;BME280;9696;53.686;10.094;2022-08-25T01:49:51;101901.97;;;17.19;92.75
19128;BME280;9696;53.686;10.094;2022-08-25T01:52:28;101899.50;;;17.18;93.77
19128;BME280;9696;53.686;10.094;2022-08-25T01:54:57;101908.41;;;17.17;93.77
19128;BME280;9696;53.686;10.094;2022-08-25T01:57:29;101907.88;;;17.13;94.49
19128;BME280;9696;53.686;10.094;2022-08-25T01:59:58;101901.50;;;17.06;95.00
19128;BME280;9696;53.686;10.094;2022-08-25T02:02:37;101903.84;;;17.09;95.55
19128;BME280;9696;53.686;10.094;2022-08-25T02:05:10;101912.91;;;17.07;95.82
19128;BME280;9696;53.686;10.094;2022-08-25T02:07:42;101908.31;;;17.09;95.86
19128;BME280;9696;53.686;10.094;2022-08-25T02:10:12;101908.75;;;17.04;95.26
19128;BME280;9696;53.686;10.094;2022-08-25T02:12:41;101915.03;;;17.03;96.16
19128;BME280;9696;53.686;10.094;2022-08-25T02:15:11;101914.75;;;17.06;95.56
19128;BME280;9696;53.686;10.094;2022-08-25T02:17:41;101920.31;;;17.03;96.33
19128;BME280;9696;53.686;10.094;2022-08-25T02:20:10;101917.84;;;17.02;96.42
19128;BME280;9696;53.686;10.094;2022-08-25T02:22:41;101922.88;;;16.95;97.00
19128;BME280;9696;53.686;10.094;2022-08-25T02:25:22;101922.75;;;16.87;98.85
19128;BME280;9696;53.686;10.094;2022-08-25T02:27:51;101925.28;;;16.88;98.61
19128;BME280;9696;53.686;10.094;2022-08-25T02:30:20;101915.25;;;16.82;98.42
19128;BME280;9696;53.686;10.094;2022-08-25T02:32:49;101914.97;;;16.85;98.43
19128;BME280;9696;53.686;10.094;2022-08-25T02:35:19;101923.88;;;16.84;99.45
19128;BME280;9696;53.686;10.094;2022-08-25T02:37:52;101914.97;;;16.76;99.25
19128;BME280;9696;53.686;10.094;2022-08-25T02:40:21;101919.91;;;16.71;100.00
19128;BME280;9696;53.686;10.094;2022-08-25T02:42:50;101917.25;;;16.71;100.00
19128;BME280;9696;53.686;10.094;2022-08-25T02:45:20;101914.84;;;16.77;100.00
19128;BME280;9696;53.686;10.094;2022-08-25T02:47:49;101907.31;;;16.73;100.00
19128;BME280;9696;53.686;10.094;2022-08-25T02:50:19;101913.88;;;16.69;100.00
19128;BME280;9696;53.686;10.094;2022-08-25T02:52:49;101910.81;;;16.64;100.00
19128;BME280;9696;53.686;10.094;2022-08-25T02:55:19;101906.78;;;16.60;100.00
19128;BME280;9696;53.686;10.094;2022-08-25T02:57:48;101915.97;;;16.56;100.00
19128;BME280;9696;53.686;10.094;2022-08-25T03:00:18;101909.97;;;16.54;100.00
19128;BME280;9696;53.686;10.094;2022-08-25T03:02:50;101901.19;;;16.53;100.00
19128;BME280;9696;53.686;10.094;2022-08-25T03:05:19;101894.53;;;16.59;100.00
19128;BME280;9696;53.686;10.094;2022-08-25T03:07:49;101898.03;;;16.59;100.00
19128;BME280;9696;53.686;10.094;2022-08-25T03:10:20;101895.38;;;16.59;100.00
19128;BME280;9696;53.686;10.094;2022-08-25T03:12:50;101885.59;;;16.60;100.00
19128;BME280;9696;53.686;10.094;2022-08-25T03:15:19;101890.09;;;16.59;100.00
19128;BME280;9696;53.686;10.094;2022-08-25T03:17:48;101886.59;;;16.59;100.00
19128;BME280;9696;53.686;10.094;2022-08-25T03:20:19;101882.53;;;16.55;100.00
19128;BME280;9696;53.686;10.094;2022-08-25T03:22:49;101888.25;;;16.60;100.00
19128;BME280;9696;53.686;10.094;2022-08-25T03:25:18;101887.56;;;16.58;100.00
19128;BME280;9696;53.686;10.094;2022-08-25T03:28:06;101888.25;;;16.50;100.00
19128;BME280;9696;53.686;10.094;2022-08-25T03:30:36;101892.03;;;16.57;100.00
19128;BME280;9696;53.686;10.094;2022-08-25T03:33:05;101892.56;;;16.51;100.00
19128;BME280;9696;53.686;10.094;2022-08-25T03:35:34;101896.75;;;16.54;100.00
19128;BME280;9696;53.686;10.094;2022-08-25T03:38:05;101896.47;;;16.47;100.00
19128;BME280;9696;53.686;10.094;2022-08-25T03:40:34;101899.13;;;16.47;100.00
19128;BME280;9696;53.686;10.094;2022-08-25T03:43:04;101892.72;;;16.40;100.00
19128;BME280;9696;53.686;10.094;2022-08-25T03:45:33;101888.41;;;16.39;100.00
19128;BME280;9696;53.686;10.094;2022-08-25T03:48:03;101885.75;;;16.39;100.00
19128;BME280;9696;53.686;10.094;2022-08-25T03:50:33;101886.19;;;16.34;100.00
19128;BME280;9696;53.686;10.094;2022-08-25T03:53:04;101888.41;;;16.29;100.00
19128;BME280;9696;53.686;10.094;2022-08-25T03:55:33;101876.44;;;16.25;100.00
19128;BME280;9696;53.686;10.094;2022-08-25T03:58:02;101881.31;;;16.30;100.00
19128;BME280;9696;53.686;10.094;2022-08-25T04:00:31;101882.44;;;16.27;100.00
19128;BME280;9696;53.686;10.094;2022-08-25T04:03:00;101886.91;;;16.27;100.00
19128;BME280;9696;53.686;10.094;2022-08-25T04:05:30;101891.91;;;16.20;100.00
19128;BME280;9696;53.686;10.094;2022-08-25T04:07:59;101884.53;;;16.14;100.00
19128;BME280;9696;53.686;10.094;2022-08-25T04:10:30;101883.13;;;16.10;100.00
19128;BME280;9696;53.686;10.094;2022-08-25T04:13:01;101881.75;;;16.06;100.00
19128;BME280;9696;53.686;10.094;2022-08-25T04:15:30;101878.00;;;15.99;100.00
19128;BME280;9696;53.686;10.094;2022-08-25T04:17:59;101880.88;;;15.96;100.00
19128;BME280;9696;53.686;10.094;2022-08-25T04:20:28;101879.25;;;15.95;100.00
19128;BME280;9696;53.686;10.094;2022-08-25T04:22:57;101881.59;;;15.98;100.00
19128;BME280;9696;53.686;10.094;2022-08-25T04:25:29;101877.16;;;15.98;100.00
19128;BME280;9696;53.686;10.094;2022-08-25T04:27:58;101884.94;;;15.90;100.00
19128;BME280;9696;53.686;10.094;2022-08-25T04:30:27;101885.66;;;15.83;100.00
19128;BME280;9696;53.686;10.094;2022-08-25T04:32:57;101878.78;;;15.80;100.00
19128;BME280;9696;53.686;10.094;2022-08-25T04:35:26;101885.22;;;15.78;100.00
19128;BME280;9696;53.686;10.094;2022-08-25T04:37:55;101893.72;;;15.81;100.00
19128;BME280;9696;53.686;10.094;2022-08-25T04:40:24;101890.78;;;15.84;100.00
19128;BME280;9696;53.686;10.094;2022-08-25T04:42:57;101892.75;;;15.92;100.00
19128;BME280;9696;53.686;10.094;2022-08-25T04:45:26;101902.22;;;16.14;100.00
19128;BME280;9696;53.686;10.094;2022-08-25T04:47:56;101898.31;;;16.18;100.00
19128;BME280;9696;53.686;10.094;2022-08-25T04:50:27;101897.91;;;16.22;100.00
19128;BME280;9696;53.686;10.094;2022-08-25T04:53:00;101894.28;;;16.23;100.00
19128;BME280;9696;53.686;10.094;2022-08-25T04:55:29;101904.72;;;16.34;100.00
19128;BME280;9696;53.686;10.094;2022-08-25T04:57:59;101910.41;;;16.39;100.00
19128;BME280;9696;53.686;10.094;2022-08-25T05:00:29;101910.69;;;16.36;100.00
19128;BME280;9696;53.686;10.094;2022-08-25T05:02:58;101912.38;;;16.37;100.00
19128;BME280;9696;53.686;10.094;2022-08-25T05:05:31;101909.84;;;16.45;100.00
19128;BME280;9696;53.686;10.094;2022-08-25T05:08:03;101900.41;;;16.43;100.00
19128;BME280;9696;53.686;10.094;2022-08-25T05:10:33;101897.28;;;16.47;100.00
19128;BME280;9696;53.686;10.094;2022-08-25T05:13:07;101894.94;;;16.54;100.00
19128;BME280;9696;53.686;10.094;2022-08-25T05:15:36;101898.00;;;16.49;100.00
19128;BME280;9696;53.686;10.094;2022-08-25T05:18:19;101896.06;;;16.61;100.00
19128;BME280;9696;53.686;10.094;2022-08-25T05:20:49;101892.28;;;16.64;100.00
19128;BME280;9696;53.686;10.094;2022-08-25T05:23:21;101888.22;;;16.69;100.00
19128;BME280;9696;53.686;10.094;2022-08-25T05:25:51;101886.41;;;16.70;100.00
19128;BME280;9696;53.686;10.094;2022-08-25T05:28:22;101887.38;;;16.69;100.00
19128;BME280;9696;53.686;10.094;2022-08-25T05:30:56;101877.75;;;16.77;100.00
19128;BME280;9696;53.686;10.094;2022-08-25T05:33:26;101880.94;;;16.81;100.00
19128;BME280;9696;53.686;10.094;2022-08-25T05:35:59;101876.88;;;16.86;100.00
19128;BME280;9696;53.686;10.094;2022-08-25T05:38:29;101883.81;;;16.97;100.00
19128;BME280;9696;53.686;10.094;2022-08-25T05:41:00;101876.69;;;16.98;100.00
19128;BME280;9696;53.686;10.094;2022-08-25T05:43:31;101878.38;;;16.99;100.00
19128;BME280;9696;53.686;10.094;2022-08-25T05:46:00;101874.28;;;17.04;100.00
19128;BME280;9696;53.686;10.094;2022-08-25T05:48:30;101879.44;;;17.06;100.00
19128;BME280;9696;53.686;10.094;2022-08-25T05:51:01;101878.72;;;17.13;100.00
19128;BME280;9696;53.686;10.094;2022-08-25T05:53:31;101883.50;;;17.27;100.00
19128;BME280;9696;53.686;10.094;2022-08-25T05:56:01;101886.13;;;17.37;100.00
19128;BME280;9696;53.686;10.094;2022-08-25T05:58:33;101888.72;;;17.19;100.00
19128;BME280;9696;53.686;10.094;2022-08-25T06:01:03;101891.03;;;17.32;100.00
19128;BME280;9696;53.686;10.094;2022-08-25T06:03:48;101886.47;;;17.24;100.00
19128;BME280;9696;53.686;10.094;2022-08-25T06:06:24;101891.47;;;17.27;100.00
19128;BME280;9696;53.686;10.094;2022-08-25T06:08:54;101881.94;;;17.34;100.00
19128;BME280;9696;53.686;10.094;2022-08-25T06:11:24;101889.81;;;17.54;100.00
19128;BME280;9696;53.686;10.094;2022-08-25T06:13:55;101889.31;;;17.68;100.00
19128;BME280;9696;53.686;10.094;2022-08-25T06:16:24;101882.66;;;17.54;100.00
19128;BME280;9696;53.686;10.094;2022-08-25T06:18:54;101878.56;;;17.69;100.00
19128;BME280;9696;53.686;10.094;2022-08-25T06:21:23;101884.31;;;17.65;100.00
19128;BME280;9696;53.686;10.094;2022-08-25T06:23:52;101876.13;;;17.76;100.00
19128;BME280;9696;53.686;10.094;2022-08-25T06:26:22;101878.16;;;17.82;100.00
19128;BME280;9696;53.686;10.094;2022-08-25T06:28:52;101880.81;;;17.82;100.00
19128;BME280;9696;53.686;10.094;2022-08-25T06:31:22;101878.63;;;17.77;100.00
19128;BME280;9696;53.686;10.094;2022-08-25T06:33:52;101879.22;;;17.71;100.00
19128;BME280;9696;53.686;10.094;2022-08-25T06:36:21;101884.41;;;17.73;100.00
19128;BME280;9696;53.686;10.094;2022-08-25T06:38:51;101880.06;;;17.72;100.00
19128;BME280;9696;53.686;10.094;2022-08-25T06:41:21;101877.50;;;17.80;100.00
19128;BME280;9696;53.686;10.094;2022-08-25T06:44:03;101875.28;;;17.75;100.00
19128;BME280;9696;53.686;10.094;2022-08-25T06:46:34;101876.69;;;17.52;100.00
19128;BME280;9696;53.686;10.094;2022-08-25T06:49:04;101873.31;;;17.50;100.00
19128;BME280;9696;53.686;10.094;2022-08-25T06:51:34;101875.84;;;17.52;100.00
19128;BME280;9696;53.686;10.094;2022-08-25T06:54:04;101881.75;;;17.73;100.00
19128;BME280;9696;53.686;10.094;2022-08-25T06:56:34;101884.75;;;17.60;100.00
19128;BME280;9696;53.686;10.094;2022-08-25T06:59:04;101883.78;;;17.79;100.00
19128;BME280;9696;53.686;10.094;2022-08-25T07:01:35;101888.03;;;17.72;100.00
19128;BME280;9696;53.686;10.094;2022-08-25T07:04:06;101889.09;;;17.79;100.00
19128;BME280;9696;53.686;10.094;2022-08-25T07:06:40;101886.38;;;17.88;100.00
19128;BME280;9696;53.686;10.094;2022-08-25T07:09:11;101894.31;;;18.06;100.00
19128;BME280;9696;53.686;10.094;2022-08-25T07:11:41;101890.59;;;18.17;99.58
19128;BME280;9696;53.686;10.094;2022-08-25T07:14:12;101892.56;;;18.32;96.47
19128;BME280;9696;53.686;10.094;2022-08-25T07:16:45;101906.53;;;17.99;99.21
19128;BME280;9696;53.686;10.094;2022-08-25T07:19:17;101898.09;;;17.86;99.28
19128;BME280;9696;53.686;10.094;2022-08-25T07:21:51;101906.63;;;17.89;100.00
19128;BME280;9696;53.686;10.094;2022-08-25T07:24:21;101904.09;;;18.06;98.73
19128;BME280;9696;53.686;10.094;2022-08-25T07:26:51;101902.75;;;18.19;97.75
19128;BME280;9696;53.686;10.094;2022-08-25T07:29:22;101905.38;;;18.02;98.16
19128;BME280;9696;53.686;10.094;2022-08-25T07:32:02;101905.31;;;17.94;99.68
19128;BME280;9696;53.686;10.094;2022-08-25T07:34:31;101904.88;;;18.16;97.84
19128;BME280;9696;53.686;10.094;2022-08-25T07:37:20;101901.44;;;18.06;97.11
19128;BME280;9696;53.686;10.094;2022-08-25T07:40:12;101899.97;;;17.85;98.13
19128;BME280;9696;53.686;10.094;2022-08-25T07:42:42;101894.84;;;18.10;97.84
19128;BME280;9696;53.686;10.094;2022-08-25T07:45:12;101893.41;;;17.98;97.14
19128;BME280;9696;53.686;10.094;2022-08-25T07:47:48;101898.66;;;18.07;97.60
19128;BME280;9696;53.686;10.094;2022-08-25T07:50:21;101905.41;;;17.84;99.43
19128;BME280;9696;53.686;10.094;2022-08-25T07:52:50;101906.00;;;18.13;97.84
19128;BME280;9696;53.686;10.094;2022-08-25T07:55:33;101904.00;;;18.33;96.51
19128;BME280;9696;53.686;10.094;2022-08-25T07:58:04;101893.78;;;18.20;95.83
19128;BME280;9696;53.686;10.094;2022-08-25T08:00:35;101898.09;;;18.39;94.87
19128;BME280;9696;53.686;10.094;2022-08-25T08:03:07;101897.72;;;18.52;94.54
19128;BME280;9696;53.686;10.094;2022-08-25T08:05:50;101893.84;;;18.28;94.04
19128;BME280;9696;53.686;10.094;2022-08-25T08:08:23;101890.72;;;18.33;95.22
19128;BME280;9696;53.686;10.094;2022-08-25T08:10:52;101893.53;;;18.31;94.53
19128;BME280;9696;53.686;10.094;2022-08-25T08:13:32;101889.28;;;18.38;94.74
19128;BME280;9696;53.686;10.094;2022-08-25T08:16:08;101886.53;;;18.48;93.04
19128;BME280;9696;53.686;10.094;2022-08-25T08:18:40;101885.47;;;18.41;93.50
19128;BME280;9696;53.686;10.094;2022-08-25T08:21:12;101886.34;;;18.50;92.56
19128;BME280;9696;53.686;10.094;2022-08-25T08:23:47;101890.00;;;18.66;91.32
19128;BME280;9696;53.686;10.094;2022-08-25T08:26:17;101900.81;;;18.29;92.77
19128;BME280;9696;53.686;10.094;2022-08-25T08:28:47;101888.59;;;18.36;93.40
19128;BME280;9696;53.686;10.094;2022-08-25T08:31:19;101889.00;;;18.50;91.98
19128;BME280;9696;53.686;10.094;2022-08-25T08:33:51;101895.81;;;18.70;90.13
19128;BME280;9696;53.686;10.094;2022-08-25T08:36:21;101881.38;;;18.98;89.00
19128;BME280;9696;53.686;10.094;2022-08-25T08:38:52;101890.66;;;18.94;88.89
19128;BME280;9696;53.686;10.094;2022-08-25T08:44:49;101885.81;;;19.23;86.71
19128;BME280;9696;53.686;10.094;2022-08-25T08:50:28;101883.59;;;19.53;84.52
19128;BME280;9696;53.686;10.094;2022-08-25T08:53:04;101886.78;;;19.64;84.55
19128;BME280;9696;53.686;10.094;2022-08-25T08:55:38;101890.91;;;19.51;84.10
19128;BME280;9696;53.686;10.094;2022-08-25T08:58:10;101885.09;;;19.63;83.64
19128;BME280;9696;53.686;10.094;2022-08-25T09:00:45;101880.00;;;20.02;82.48
19128;BME280;9696;53.686;10.094;2022-08-25T09:03:28;101872.19;;;20.09;81.23
19128;BME280;9696;53.686;10.094;2022-08-25T09:06:02;101875.50;;;20.19;80.82
19128;BME280;9696;53.686;10.094;2022-08-25T09:08:35;101871.69;;;20.46;79.84
19128;BME280;9696;53.686;10.094;2022-08-25T09:11:11;101868.59;;;20.81;77.76
19128;BME280;9696;53.686;10.094;2022-08-25T09:13:59;101872.81;;;20.51;78.70
19128;BME280;9696;53.686;10.094;2022-08-25T09:16:40;101864.63;;;21.24;76.92
19128;BME280;9696;53.686;10.094;2022-08-25T09:19:40;101856.72;;;20.92;77.95
19128;BME280;9696;53.686;10.094;2022-08-25T09:22:24;101851.03;;;21.34;76.28
19128;BME280;9696;53.686;10.094;2022-08-25T09:25:10;101851.66;;;22.35;71.59
19128;BME280;9696;53.686;10.094;2022-08-25T09:27:58;101859.06;;;22.10;73.97
19128;BME280;9696;53.686;10.094;2022-08-25T09:30:36;101842.97;;;21.42;75.38
19128;BME280;9696;53.686;10.094;2022-08-25T09:33:12;101847.41;;;22.40;72.62
19128;BME280;9696;53.686;10.094;2022-08-25T09:35:49;101841.88;;;23.15;69.31
19128;BME280;9696;53.686;10.094;2022-08-25T09:38:22;101846.66;;;23.34;67.66
19128;BME280;9696;53.686;10.094;2022-08-25T09:40:54;101844.31;;;22.81;70.53
19128;BME280;9696;53.686;10.094;2022-08-25T09:43:31;101836.75;;;22.99;69.49
19128;BME280;9696;53.686;10.094;2022-08-25T09:46:07;101829.53;;;23.71;66.57
19128;BME280;9696;53.686;10.094;2022-08-25T09:48:43;101824.31;;;24.33;65.51
19128;BME280;9696;53.686;10.094;2022-08-25T09:51:18;101827.50;;;24.22;65.35
19128;BME280;9696;53.686;10.094;2022-08-25T09:53:55;101819.72;;;24.62;63.23
19128;BME280;9696;53.686;10.094;2022-08-25T09:56:27;101813.53;;;24.96;62.10
19128;BME280;9696;53.686;10.094;2022-08-25T09:59:20;101805.44;;;24.55;62.82
19128;BME280;9696;53.686;10.094;2022-08-25T10:02:04;101794.91;;;24.94;61.69
19128;BME280;9696;53.686;10.094;2022-08-25T10:04:35;101794.72;;;25.69;59.78
19128;BME280;9696;53.686;10.094;2022-08-25T10:07:23;101797.66;;;24.66;62.07
19128;BME280;9696;53.686;10.094;2022-08-25T10:09:56;101795.88;;;24.46;62.96
19128;BME280;9696;53.686;10.094;2022-08-25T10:12:31;101771.94;;;25.92;59.12
19128;BME280;9696;53.686;10.094;2022-08-25T10:15:16;101770.88;;;26.39;56.88
19128;BME280;9696;53.686;10.094;2022-08-25T10:18:20;101768.88;;;24.88;60.64
19128;BME280;9696;53.686;10.094;2022-08-25T10:21:05;101770.72;;;24.47;62.41
19128;BME280;9696;53.686;10.094;2022-08-25T10:23:38;101762.44;;;25.83;58.67
19128;BME280;9696;53.686;10.094;2022-08-25T10:26:27;101766.56;;;25.92;57.69
19128;BME280;9696;53.686;10.094;2022-08-25T10:29:12;101757.84;;;26.16;56.98
19128;BME280;9696;53.686;10.094;2022-08-25T10:31:49;101758.50;;;25.72;57.67
19128;BME280;9696;53.686;10.094;2022-08-25T10:34:38;101759.16;;;25.67;58.80
19128;BME280;9696;53.686;10.094;2022-08-25T10:37:22;101758.50;;;26.89;54.69
19128;BME280;9696;53.686;10.094;2022-08-25T10:40:08;101762.41;;;25.50;58.65
19128;BME280;9696;53.686;10.094;2022-08-25T10:42:55;101757.84;;;26.42;53.86
19128;BME280;9696;53.686;10.094;2022-08-25T10:45:28;101752.03;;;25.27;57.89
19128;BME280;9696;53.686;10.094;2022-08-25T10:48:41;101744.41;;;26.29;55.64
19128;BME280;9696;53.686;10.094;2022-08-25T10:51:37;101737.38;;;25.49;57.75
19128;BME280;9696;53.686;10.094;2022-08-25T10:54:27;101737.00;;;25.52;57.65
19128;BME280;9696;53.686;10.094;2022-08-25T10:57:07;101731.91;;;26.99;53.10
19128;BME280;9696;53.686;10.094;2022-08-25T10:59:59;101721.03;;;26.23;54.89
19128;BME280;9696;53.686;10.094;2022-08-25T11:02:42;101717.97;;;27.40;52.09
19128;BME280;9696;53.686;10.094;2022-08-25T11:05:23;101721.66;;;27.70;51.61
19128;BME280;9696;53.686;10.094;2022-08-25T11:08:02;101697.47;;;27.82;50.34
19128;BME280;9696;53.686;10.094;2022-08-25T11:10:39;101700.81;;;27.03;51.95
19128;BME280;9696;53.686;10.094;2022-08-25T11:13:15;101698.63;;;26.87;53.06
19128;BME280;9696;53.686;10.094;2022-08-25T11:15:52;101699.88;;;26.84;51.73
19128;BME280;9696;53.686;10.094;2022-08-25T11:18:49;101699.06;;;26.77;53.43
19128;BME280;9696;53.686;10.094;2022-08-25T11:21:22;101693.72;;;27.08;52.42
19128;BME280;9696;53.686;10.094;2022-08-25T11:24:00;101689.44;;;28.18;48.36
19128;BME280;9696;53.686;10.094;2022-08-25T11:26:36;101691.25;;;27.63;50.29
19128;BME280;9696;53.686;10.094;2022-08-25T11:29:12;101682.19;;;27.57;50.44
19128;BME280;9696;53.686;10.094;2022-08-25T11:31:47;101681.69;;;27.85;47.97
19128;BME280;9696;53.686;10.094;2022-08-25T11:34:21;101687.03;;;27.17;50.10
19128;BME280;9696;53.686;10.094;2022-08-25T11:36:53;101681.44;;;27.69;49.45
19128;BME280;9696;53.686;10.094;2022-08-25T11:39:36;101672.88;;;28.33;46.14
19128;BME280;9696;53.686;10.094;2022-08-25T11:42:17;101676.16;;;26.99;49.16
19128;BME280;9696;53.686;10.094;2022-08-25T11:44:57;101665.00;;;27.95;47.83
19128;BME280;9696;53.686;10.094;2022-08-25T11:47:58;101665.75;;;28.86;46.91
19128;BME280;9696;53.686;10.094;2022-08-25T11:50:34;101665.34;;;27.98;48.42
19128;BME280;9696;53.686;10.094;2022-08-25T11:53:18;101657.69;;;28.50;45.32
19128;BME280;9696;53.686;10.094;2022-08-25T11:55:57;101657.22;;;28.53;46.12
19128;BME280;9696;53.686;10.094;2022-08-25T11:58:44;101661.56;;;26.82;50.39
19128;BME280;9696;53.686;10.094;2022-08-25T12:01:58;101657.75;;;26.01;52.96
19128;BME280;9696;53.686;10.094;2022-08-25T12:04:39;101646.16;;;28.43;45.73
19128;BME280;9696;53.686;10.094;2022-08-25T12:07:25;101636.19;;;29.03;44.73
19128;BME280;9696;53.686;10.094;2022-08-25T12:10:14;101630.44;;;28.22;46.51
19128;BME280;9696;53.686;10.094;2022-08-25T12:15:58;101623.41;;;27.41;48.08
19128;BME280;9696;53.686;10.094;2022-08-25T12:18:43;101629.78;;;27.22;48.07
19128;BME280;9696;53.686;10.094;2022-08-25T12:21:32;101627.63;;;27.55;47.23
19128;BME280;9696;53.686;10.094;2022-08-25T12:24:14;101622.50;;;28.86;44.45
19128;BME280;9696;53.686;10.094;2022-08-25T12:26:53;101618.63;;;26.94;48.74
19128;BME280;9696;53.686;10.094;2022-08-25T12:29:29;101607.44;;;27.83;46.91
19128;BME280;9696;53.686;10.094;2022-08-25T12:32:11;101604.50;;;28.02;46.32
19128;BME280;9696;53.686;10.094;2022-08-25T12:35:09;101612.56;;;29.10;44.54
19128;BME280;9696;53.686;10.094;2022-08-25T12:37:57;101609.03;;;28.68;44.86
19128;BME280;9696;53.686;10.094;2022-08-25T12:40:33;101605.22;;;28.76;43.26
19128;BME280;9696;53.686;10.094;2022-08-25T12:43:07;101595.50;;;29.79;40.21
19128;BME280;9696;53.686;10.094;2022-08-25T12:45:43;101596.38;;;29.45;41.20
19128;BME280;9696;53.686;10.094;2022-08-25T12:48:54;101598.59;;;29.48;41.83
19128;BME280;9696;53.686;10.094;2022-08-25T12:51:26;101594.13;;;29.07;40.86
19128;BME280;9696;53.686;10.094;2022-08-25T12:54:10;101600.19;;;26.91;47.20
19128;BME280;9696;53.686;10.094;2022-08-25T12:56:46;101587.00;;;28.71;42.99
19128;BME280;9696;53.686;10.094;2022-08-25T12:59:20;101581.75;;;27.80;45.45
19128;BME280;9696;53.686;10.094;2022-08-25T13:02:12;101582.44;;;28.83;44.47
19128;BME280;9696;53.686;10.094;2022-08-25T13:05:15;101576.09;;;28.89;42.44
19128;BME280;9696;53.686;10.094;2022-08-25T13:08:18;101578.69;;;29.77;41.78
19128;BME280;9696;53.686;10.094;2022-08-25T13:10:56;101581.50;;;29.94;41.14
19128;BME280;9696;53.686;10.094;2022-08-25T13:13:39;101572.91;;;27.73;45.44
19128;BME280;9696;53.686;10.094;2022-08-25T13:16:17;101572.81;;;27.80;45.05
19128;BME280;9696;53.686;10.094;2022-08-25T13:18:47;101564.88;;;29.51;42.39
19128;BME280;9696;53.686;10.094;2022-08-25T13:21:21;101561.47;;;28.55;43.71
19128;BME280;9696;53.686;10.094;2022-08-25T13:23:53;101554.81;;;28.28;44.19
19128;BME280;9696;53.686;10.094;2022-08-25T13:26:38;101553.78;;;28.11;44.36
19128;BME280;9696;53.686;10.094;2022-08-25T13:29:19;101562.72;;;27.14;45.91
19128;BME280;9696;53.686;10.094;2022-08-25T13:31:54;101552.78;;;26.58;48.31
19128;BME280;9696;53.686;10.094;2022-08-25T13:34:26;101544.09;;;26.81;47.56